Time;durP1;ratioP1;P1;durP2;ratioP2;P2;SDS_P1;SDS_P2;PMS_P1;PMS_P2;Temp;Humidity;BMP_temperature;BMP_pressure;BME280_temperature;BME280_humidity;BME280_pressure;Samples;Min_cycle;Max_cycle;Signal;HPM_P1;HPM_P2
2023/06/06 00:01:30;;;;;;;4.78;2.83;;;;;;;;;;5069677;28;20041;-70
2023/06/06 00:03:58;;;;;;;4.78;2.90;;;;;;;;;;5070612;28;20498;-71
2023/06/06 00:06:27;;;;;;;5.93;2.70;;;;;;;;;;5069852;28;20285;-71
2023/06/06 00:08:54;;;;;;;4.22;3.47;;;;;;;;;;5069408;28;20090;-71
2023/06/06 00:11:21;;;;;;;4.32;2.95;;;;;;;;;;5069560;28;20551;-70
2023/06/06 00:13:49;;;;;;;3.88;2.97;;;;;;;;;;5069917;28;20048;-71
2023/06/06 00:16:16;;;;;;;5.80;2.78;;;;;;;;;;5069943;28;20048;-71
2023/06/06 00:18:45;;;;;;;5.18;2.90;;;;;;;;;;5069975;28;20045;-70
2023/06/06 00:21:13;;;;;;;5.05;2.63;;;;;;;;;;5069104;28;20102;-70
2023/06/06 00:23:39;;;;;;;4.65;2.53;;;;;;;;;;5070564;28;20102;-70
2023/06/06 00:26:06;;;;;;;4.32;3.13;;;;;;;;;;5069743;28;20048;-69
2023/06/06 00:28:32;;;;;;;5.70;2.90;;;;;;;;;;5070266;28;20048;-70
2023/06/06 00:31:00;;;;;;;4.45;3.17;;;;;;;;;;5069988;28;20095;-69
2023/06/06 00:33:26;;;;;;;4.43;2.80;;;;;;;;;;5070129;28;20501;-70
2023/06/06 00:35:53;;;;;;;4.95;2.70;;;;;;;;;;5070166;28;20044;-69
2023/06/06 00:38:20;;;;;;;4.45;2.75;;;;;;;;;;5069491;28;20056;-69
2023/06/06 00:40:47;;;;;;;4.28;2.75;;;;;;;;;;5069234;28;20040;-69
2023/06/06 00:43:14;;;;;;;4.63;2.90;;;;;;;;;;5069552;28;20050;-69
2023/06/06 00:45:40;;;;;;;4.03;2.83;;;;;;;;;;5070112;28;20385;-70
2023/06/06 00:48:07;;;;;;;4.25;2.72;;;;;;;;;;5069514;28;20509;-69
2023/06/06 00:50:36;;;;;;;4.05;3.00;;;;;;;;;;5069502;28;20044;-70
2023/06/06 00:53:04;;;;;;;4.40;3.10;;;;;;;;;;5069516;28;20460;-70
2023/06/06 00:55:33;;;;;;;6.10;3.17;;;;;;;;;;5069860;28;20417;-69
2023/06/06 00:58:00;;;;;;;4.68;3.03;;;;;;;;;;5069493;28;20053;-69
2023/06/06 01:00:32;;;;;;;3.25;2.70;;;;;;;;;;5069374;28;20041;-70
2023/06/06 01:02:59;;;;;;;3.58;2.70;;;;;;;;;;5069445;28;20536;-70
2023/06/06 01:05:26;;;;;;;5.68;3.10;;;;;;;;;;5069888;28;20067;-70
2023/06/06 01:07:53;;;;;;;4.78;3.00;;;;;;;;;;5069242;28;20569;-70
2023/06/06 01:10:20;;;;;;;4.78;3.40;;;;;;;;;;5068993;28;20056;-70
2023/06/06 01:12:57;;;;;;;5.25;3.03;;;;;;;;;;5069735;28;20041;-70
2023/06/06 01:15:29;;;;;;;5.43;3.17;;;;;;;;;;5069090;28;20045;-70
2023/06/06 01:17:56;;;;;;;4.15;3.33;;;;;;;;;;5069710;28;20049;-70
2023/06/06 01:20:24;;;;;;;4.60;3.20;;;;;;;;;;5071094;28;20048;-70
2023/06/06 01:22:53;;;;;;;4.88;3.15;;;;;;;;;;5072932;28;20052;-70
2023/06/06 01:25:21;;;;;;;6.05;3.15;;;;;;;;;;5072940;28;20048;-70
2023/06/06 01:27:53;;;;;;;3.35;3.05;;;;;;;;;;5073563;28;20079;-70
2023/06/06 01:30:22;;;;;;;3.67;2.90;;;;;;;;;;5072544;28;20094;-70
2023/06/06 01:33:01;;;;;;;4.07;3.13;;;;;;;;;;5072839;28;20041;-70
2023/06/06 01:35:36;;;;;;;4.68;3.13;;;;;;;;;;5072921;28;20409;-70
2023/06/06 01:38:08;;;;;;;6.15;3.03;;;;;;;;;;5073184;28;20055;-70
2023/06/06 01:40:35;;;;;;;4.32;3.13;;;;;;;;;;5072323;28;20047;-70
2023/06/06 01:43:04;;;;;;;3.38;3.08;;;;;;;;;;5073173;28;20131;-71
2023/06/06 01:45:33;;;;;;;4.30;3.20;;;;;;;;;;5072882;28;20057;-70
2023/06/06 01:48:00;;;;;;;5.07;3.05;;;;;;;;;;5072699;28;20045;-70
2023/06/06 01:50:27;;;;;;;5.50;3.15;;;;;;;;;;5072165;28;20510;-70
2023/06/06 01:52:54;;;;;;;3.95;3.17;;;;;;;;;;5072739;28;20054;-70
2023/06/06 01:55:22;;;;;;;3.58;3.20;;;;;;;;;;5072727;28;20045;-70
2023/06/06 01:57:49;;;;;;;5.82;3.45;;;;;;;;;;5072169;28;20336;-70
2023/06/06 02:00:17;;;;;;;3.95;3.15;;;;;;;;;;5071952;28;20045;-70
2023/06/06 02:02:44;;;;;;;4.47;2.83;;;;;;;;;;5071856;28;20048;-70
2023/06/06 02:05:11;;;;;;;6.45;3.42;;;;;;;;;;5072571;28;20048;-71
2023/06/06 02:07:37;;;;;;;4.00;3.20;;;;;;;;;;5072431;28;20397;-71
2023/06/06 02:10:05;;;;;;;4.32;3.40;;;;;;;;;;5071907;28;20055;-70
2023/06/06 02:12:34;;;;;;;3.50;3.10;;;;;;;;;;5071581;28;20057;-70
2023/06/06 02:15:01;;;;;;;4.35;3.63;;;;;;;;;;5072541;28;20041;-70
2023/06/06 02:17:28;;;;;;;4.55;3.40;;;;;;;;;;5071635;28;20051;-70
2023/06/06 02:19:54;;;;;;;6.07;3.30;;;;;;;;;;5071865;28;20089;-70
2023/06/06 02:22:21;;;;;;;3.42;3.10;;;;;;;;;;5071313;28;20082;-70
2023/06/06 02:24:49;;;;;;;5.82;3.13;;;;;;;;;;5071593;28;20041;-70
2023/06/06 02:27:17;;;;;;;3.75;3.30;;;;;;;;;;5071793;28;20418;-70
2023/06/06 02:29:45;;;;;;;6.18;3.00;;;;;;;;;;5071735;28;20040;-70
2023/06/06 02:32:12;;;;;;;4.03;3.58;;;;;;;;;;5071147;28;20512;-70
2023/06/06 02:34:39;;;;;;;4.70;3.40;;;;;;;;;;5071611;28;20049;-70
2023/06/06 02:37:06;;;;;;;3.85;3.22;;;;;;;;;;5071747;28;20048;-71
2023/06/06 02:39:33;;;;;;;4.07;3.40;;;;;;;;;;5070911;28;20135;-71
2023/06/06 02:41:59;;;;;;;4.22;3.45;;;;;;;;;;5071678;28;20056;-70
2023/06/06 02:44:27;;;;;;;4.85;3.40;;;;;;;;;;5071283;28;20045;-70
2023/06/06 02:46:55;;;;;;;5.05;3.35;;;;;;;;;;5072052;28;20052;-70
2023/06/06 02:49:21;;;;;;;4.15;3.10;;;;;;;;;;5071334;28;20053;-70
2023/06/06 02:51:48;;;;;;;4.28;3.30;;;;;;;;;;5071281;28;20055;-70
2023/06/06 02:54:14;;;;;;;3.90;3.40;;;;;;;;;;5071039;28;20048;-72
2023/06/06 02:56:41;;;;;;;4.57;3.17;;;;;;;;;;5071368;28;20421;-70
2023/06/06 02:59:08;;;;;;;3.92;3.50;;;;;;;;;;5071010;28;20048;-71
2023/06/06 03:01:35;;;;;;;4.40;3.40;;;;;;;;;;5070762;28;20044;-72
2023/06/06 03:04:03;;;;;;;4.50;3.00;;;;;;;;;;5070854;28;20044;-71
2023/06/06 03:06:36;;;;;;;6.80;3.72;;;;;;;;;;5071005;28;20048;-70
2023/06/06 03:09:04;;;;;;;4.70;3.20;;;;;;;;;;5071449;28;20076;-70
2023/06/06 03:11:31;;;;;;;9.13;3.42;;;;;;;;;;5070610;28;20048;-72
2023/06/06 03:13:58;;;;;;;5.05;3.45;;;;;;;;;;5071206;28;20045;-71
2023/06/06 03:16:26;;;;;;;4.00;3.22;;;;;;;;;;5070569;28;20052;-70
2023/06/06 03:18:52;;;;;;;7.20;3.50;;;;;;;;;;5083847;22;20052;-69
2023/06/06 03:21:20;;;;;;;5.70;3.42;;;;;;;;;;5069665;28;20048;-69
2023/06/06 03:23:47;;;;;;;3.72;3.10;;;;;;;;;;5071061;28;20048;-68
2023/06/06 03:26:14;;;;;;;4.85;3.42;;;;;;;;;;5070428;28;20045;-69
2023/06/06 03:28:40;;;;;;;5.75;3.20;;;;;;;;;;5070614;28;20041;-69
2023/06/06 03:31:08;;;;;;;5.47;3.33;;;;;;;;;;5069823;28;20075;-69
2023/06/06 03:33:35;;;;;;;3.83;3.20;;;;;;;;;;5070277;28;20050;-69
2023/06/06 03:36:02;;;;;;;3.28;2.95;;;;;;;;;;5069896;28;20044;-69
2023/06/06 03:38:30;;;;;;;4.78;3.40;;;;;;;;;;5070774;28;20047;-69
2023/06/06 03:40:57;;;;;;;5.50;3.28;;;;;;;;;;5069700;28;20055;-69
2023/06/06 03:43:23;;;;;;;6.43;3.38;;;;;;;;;;5070877;28;20049;-69
2023/06/06 03:45:50;;;;;;;5.15;3.55;;;;;;;;;;5070433;28;20048;-69
2023/06/06 03:48:17;;;;;;;4.78;3.70;;;;;;;;;;5069981;28;20075;-69
2023/06/06 03:50:43;;;;;;;4.18;3.08;;;;;;;;;;5070263;28;20517;-68
2023/06/06 03:53:10;;;;;;;5.97;3.70;;;;;;;;;;5070085;28;20056;-68
2023/06/06 03:55:38;;;;;;;5.22;3.55;;;;;;;;;;5070904;28;20049;-69
2023/06/06 03:58:04;;;;;;;4.25;3.10;;;;;;;;;;5070130;28;20049;-69
2023/06/06 04:00:31;;;;;;;5.30;3.40;;;;;;;;;;5070052;28;20490;-69
2023/06/06 04:02:58;;;;;;;4.80;3.40;;;;;;;;;;5069554;28;20047;-69
2023/06/06 04:05:24;;;;;;;4.53;3.30;;;;;;;;;;5070131;28;20044;-69
2023/06/06 04:07:51;;;;;;;5.25;3.67;;;;;;;;;;5069847;28;20065;-69
2023/06/06 04:10:18;;;;;;;5.00;3.70;;;;;;;;;;5069865;28;20051;-69
2023/06/06 04:12:46;;;;;;;6.28;3.63;;;;;;;;;;5069618;28;20055;-69
2023/06/06 04:15:13;;;;;;;7.13;3.63;;;;;;;;;;5070056;28;20059;-69
2023/06/06 04:17:39;;;;;;;8.25;3.60;;;;;;;;;;5069275;28;20055;-69
2023/06/06 04:20:08;;;;;;;4.25;3.45;;;;;;;;;;5069604;28;20059;-69
2023/06/06 04:22:35;;;;;;;5.65;3.53;;;;;;;;;;5069808;28;20251;-69
2023/06/06 04:25:01;;;;;;;5.70;3.58;;;;;;;;;;5069491;28;20045;-69
2023/06/06 04:27:28;;;;;;;10.07;3.65;;;;;;;;;;5069682;28;20044;-69
2023/06/06 04:29:57;;;;;;;6.68;3.83;;;;;;;;;;5068937;28;20048;-69
2023/06/06 04:32:24;;;;;;;4.68;3.40;;;;;;;;;;5069897;28;20059;-69
2023/06/06 04:34:52;;;;;;;7.57;3.72;;;;;;;;;;5069233;28;20048;-69
2023/06/06 04:37:19;;;;;;;5.18;3.63;;;;;;;;;;5069507;28;20072;-69
2023/06/06 04:39:52;;;;;;;6.32;3.35;;;;;;;;;;5069075;28;20044;-69
2023/06/06 04:42:21;;;;;;;7.15;3.70;;;;;;;;;;5069559;28;20505;-69
2023/06/06 04:44:49;;;;;;;6.30;3.63;;;;;;;;;;5069562;28;20063;-69
2023/06/06 04:47:19;;;;;;;7.78;3.28;;;;;;;;;;5069649;28;20048;-69
2023/06/06 04:49:47;;;;;;;7.78;3.95;;;;;;;;;;5069273;28;20044;-69
2023/06/06 04:52:14;;;;;;;6.45;3.40;;;;;;;;;;5069794;28;20098;-69
2023/06/06 04:54:41;;;;;;;7.35;3.58;;;;;;;;;;5070632;28;20056;-69
2023/06/06 04:57:08;;;;;;;6.75;3.88;;;;;;;;;;5073515;28;20405;-69
2023/06/06 04:59:37;;;;;;;7.15;4.30;;;;;;;;;;5073352;28;20048;-69
2023/06/06 05:02:06;;;;;;;7.05;3.58;;;;;;;;;;5074017;28;20052;-69
2023/06/06 05:04:34;;;;;;;5.07;3.38;;;;;;;;;;5073541;28;20078;-69
2023/06/06 05:07:00;;;;;;;5.03;3.30;;;;;;;;;;5072869;28;20478;-69
2023/06/06 05:09:27;;;;;;;4.88;3.55;;;;;;;;;;5073368;28;20118;-69
2023/06/06 05:11:56;;;;;;;4.35;3.45;;;;;;;;;;5073034;28;20048;-69
2023/06/06 05:14:24;;;;;;;4.93;3.22;;;;;;;;;;5073709;28;20456;-69
2023/06/06 05:16:51;;;;;;;4.05;3.40;;;;;;;;;;5072627;28;20113;-69
2023/06/06 05:19:18;;;;;;;4.85;3.47;;;;;;;;;;5073012;28;20094;-69
2023/06/06 05:21:46;;;;;;;8.18;3.85;;;;;;;;;;5072340;28;20063;-69
2023/06/06 05:24:13;;;;;;;4.95;3.42;;;;;;;;;;5072886;28;20055;-69
2023/06/06 05:26:40;;;;;;;5.38;3.20;;;;;;;;;;5072560;28;20044;-69
2023/06/06 05:29:07;;;;;;;5.75;3.38;;;;;;;;;;5073135;28;20052;-69
2023/06/06 05:31:34;;;;;;;6.88;3.47;;;;;;;;;;5072019;28;20049;-69
2023/06/06 05:34:01;;;;;;;6.35;3.75;;;;;;;;;;5072993;28;20056;-68
2023/06/06 05:36:28;;;;;;;5.20;3.40;;;;;;;;;;5072071;28;20044;-69
2023/06/06 05:38:56;;;;;;;5.90;3.08;;;;;;;;;;5072776;28;20484;-68
2023/06/06 05:41:23;;;;;;;5.10;3.30;;;;;;;;;;5072429;28;20422;-68
2023/06/06 05:43:51;;;;;;;5.53;3.58;;;;;;;;;;5072232;28;20489;-68
2023/06/06 05:46:18;;;;;;;5.60;3.70;;;;;;;;;;5072421;28;20052;-69
2023/06/06 05:48:44;;;;;;;5.90;3.50;;;;;;;;;;5071975;28;20056;-69
2023/06/06 05:51:11;;;;;;;3.88;3.17;;;;;;;;;;5071854;28;20056;-69
2023/06/06 05:53:40;;;;;;;5.10;3.50;;;;;;;;;;5072376;28;20048;-68
2023/06/06 05:56:09;;;;;;;3.78;3.40;;;;;;;;;;5072766;28;20056;-69
2023/06/06 05:58:35;;;;;;;5.80;3.20;;;;;;;;;;5071885;28;20041;-70
2023/06/06 06:01:02;;;;;;;5.78;3.42;;;;;;;;;;5072364;28;20049;-70
2023/06/06 06:03:29;;;;;;;3.92;3.30;;;;;;;;;;5072120;28;20136;-70
2023/06/06 06:06:02;;;;;;;7.00;3.63;;;;;;;;;;5071647;28;20052;-70
2023/06/06 06:08:28;;;;;;;5.35;3.55;;;;;;;;;;5072186;28;20521;-70
2023/06/06 06:10:55;;;;;;;4.53;3.45;;;;;;;;;;5071820;28;20075;-70
2023/06/06 06:13:23;;;;;;;4.05;3.53;;;;;;;;;;5071472;28;20048;-70
2023/06/06 06:15:51;;;;;;;9.70;3.65;;;;;;;;;;5071720;28;20041;-70
2023/06/06 06:18:17;;;;;;;5.70;3.20;;;;;;;;;;5071775;28;20493;-70
2023/06/06 06:20:44;;;;;;;9.32;3.33;;;;;;;;;;5071077;28;20046;-70
2023/06/06 06:23:10;;;;;;;5.60;2.78;;;;;;;;;;5071946;28;20098;-70
2023/06/06 06:25:37;;;;;;;7.93;3.10;;;;;;;;;;5071022;28;20055;-70
2023/06/06 06:28:04;;;;;;;5.82;2.67;;;;;;;;;;5071608;28;20041;-70
2023/06/06 06:30:31;;;;;;;6.90;2.78;;;;;;;;;;5070735;28;20040;-70
2023/06/06 06:32:58;;;;;;;7.45;3.67;;;;;;;;;;5071390;28;20429;-69
2023/06/06 06:35:25;;;;;;;6.25;2.70;;;;;;;;;;5071177;28;20044;-70
2023/06/06 06:37:51;;;;;;;7.95;2.60;;;;;;;;;;5071562;28;20048;-70
2023/06/06 06:40:18;;;;;;;6.72;2.63;;;;;;;;;;5070939;28;20049;-70
2023/06/06 06:42:44;;;;;;;8.55;2.45;;;;;;;;;;5071460;28;20391;-70
2023/06/06 06:45:13;;;;;;;5.68;2.75;;;;;;;;;;5070800;28;20052;-70
2023/06/06 06:47:43;;;;;;;4.75;2.67;;;;;;;;;;5071279;28;20482;-70
2023/06/06 06:50:11;;;;;;;5.50;2.90;;;;;;;;;;5070728;28;20123;-70
2023/06/06 06:52:37;;;;;;;5.63;3.03;;;;;;;;;;5071124;28;20102;-70
2023/06/06 06:55:05;;;;;;;6.97;3.10;;;;;;;;;;5071371;28;20512;-70
2023/06/06 06:57:33;;;;;;;9.27;2.83;;;;;;;;;;5070784;28;20051;-70
2023/06/06 07:00:06;;;;;;;5.47;3.05;;;;;;;;;;5070355;28;20478;-70
2023/06/06 07:02:39;;;;;;;7.97;2.55;;;;;;;;;;5070611;28;20106;-70
2023/06/06 07:05:08;;;;;;;10.23;3.10;;;;;;;;;;5070937;28;20131;-70
2023/06/06 07:07:34;;;;;;;10.65;2.92;;;;;;;;;;5070570;28;20525;-70
2023/06/06 07:10:01;;;;;;;5.97;2.42;;;;;;;;;;5070567;28;20094;-70
2023/06/06 07:12:27;;;;;;;5.28;2.72;;;;;;;;;;5070305;28;20052;-70
2023/06/06 07:14:54;;;;;;;6.93;2.88;;;;;;;;;;5071152;28;20040;-70
2023/06/06 07:17:21;;;;;;;8.70;2.55;;;;;;;;;;5068043;28;20140;-70
2023/06/06 07:19:47;;;;;;;6.78;2.50;;;;;;;;;;5057365;28;20041;-70
2023/06/06 07:22:15;;;;;;;4.32;2.30;;;;;;;;;;5052183;28;20052;-70
2023/06/06 07:24:43;;;;;;;7.50;2.78;;;;;;;;;;5050523;28;20414;-70
2023/06/06 07:27:10;;;;;;;6.72;2.50;;;;;;;;;;5053769;28;20478;-70
2023/06/06 07:29:37;;;;;;;5.55;2.55;;;;;;;;;;5056005;28;20044;-70
2023/06/06 07:32:04;;;;;;;9.48;2.97;;;;;;;;;;5049119;28;20076;-70
2023/06/06 07:34:31;;;;;;;5.25;2.70;;;;;;;;;;5049994;28;20048;-70
2023/06/06 07:37:00;;;;;;;6.32;2.70;;;;;;;;;;5067805;28;20114;-70
2023/06/06 07:39:28;;;;;;;7.63;3.03;;;;;;;;;;5069298;28;20055;-70
2023/06/06 07:41:54;;;;;;;12.40;2.60;;;;;;;;;;5060946;28;20098;-70
2023/06/06 07:44:21;;;;;;;3.75;2.50;;;;;;;;;;5050691;28;20041;-70
2023/06/06 07:46:47;;;;;;;5.80;2.90;;;;;;;;;;5062569;28;20533;-69
2023/06/06 07:49:14;;;;;;;7.57;2.60;;;;;;;;;;5066194;28;20047;-69
2023/06/06 07:51:41;;;;;;;7.18;2.50;;;;;;;;;;5068859;28;20438;-70
2023/06/06 07:54:07;;;;;;;5.72;2.70;;;;;;;;;;5068988;28;20052;-70
2023/06/06 07:56:37;;;;;;;8.45;2.88;;;;;;;;;;5063536;28;20040;-69
2023/06/06 07:59:04;;;;;;;9.00;2.80;;;;;;;;;;5070229;28;20373;-70
2023/06/06 08:01:31;;;;;;;4.07;2.50;;;;;;;;;;5069320;28;20052;-70
2023/06/06 08:03:59;;;;;;;8.63;2.72;;;;;;;;;;5067204;28;20090;-69
2023/06/06 08:06:27;;;;;;;8.10;2.63;;;;;;;;;;5062175;28;20040;-69
2023/06/06 08:08:54;;;;;;;5.72;2.90;;;;;;;;;;5062638;28;20124;-69
2023/06/06 08:11:21;;;;;;;4.50;2.78;;;;;;;;;;5054032;28;20040;-70
2023/06/06 08:13:49;;;;;;;3.13;2.40;;;;;;;;;;5068953;28;20059;-69
2023/06/06 08:16:15;;;;;;;4.15;2.50;;;;;;;;;;5069443;28;20441;-70
2023/06/06 08:18:42;;;;;;;2.75;2.45;;;;;;;;;;5061326;28;20514;-70
2023/06/06 08:21:09;;;;;;;5.07;2.92;;;;;;;;;;5066715;28;20102;-69
2023/06/06 08:23:35;;;;;;;8.15;2.80;;;;;;;;;;5056497;28;20150;-70
2023/06/06 08:26:02;;;;;;;6.03;3.13;;;;;;;;;;5049471;28;20476;-69
2023/06/06 08:28:28;;;;;;;4.72;2.80;;;;;;;;;;5063909;28;20130;-70
2023/06/06 08:30:56;;;;;;;5.25;2.72;;;;;;;;;;5072009;28;20048;-70
2023/06/06 08:33:23;;;;;;;5.32;2.58;;;;;;;;;;5069857;28;20055;-70
2023/06/06 08:35:50;;;;;;;4.72;2.70;;;;;;;;;;5060130;28;20037;-70
2023/06/06 08:38:16;;;;;;;5.35;2.72;;;;;;;;;;5055595;28;20049;-70
2023/06/06 08:40:43;;;;;;;2.92;2.33;;;;;;;;;;5056297;28;20486;-70
2023/06/06 08:43:12;;;;;;;5.18;2.58;;;;;;;;;;5055980;28;20052;-70
2023/06/06 08:45:43;;;;;;;5.63;2.75;;;;;;;;;;5053365;28;20049;-70
2023/06/06 08:48:14;;;;;;;4.18;2.40;;;;;;;;;;5052861;28;20060;-70
2023/06/06 08:50:42;;;;;;;6.35;2.85;;;;;;;;;;5058117;28;20072;-70
2023/06/06 08:53:10;;;;;;;6.15;2.60;;;;;;;;;;5056591;28;20071;-70
2023/06/06 08:55:38;;;;;;;5.03;2.50;;;;;;;;;;5053089;28;20049;-70
2023/06/06 08:58:06;;;;;;;5.50;2.60;;;;;;;;;;5053428;28;20041;-69
2023/06/06 09:00:33;;;;;;;5.75;2.80;;;;;;;;;;5052210;28;20045;-69
2023/06/06 09:03:02;;;;;;;4.55;3.03;;;;;;;;;;5051976;28;20498;-69
2023/06/06 09:05:31;;;;;;;5.03;2.75;;;;;;;;;;5065258;28;20119;-69
2023/06/06 09:07:58;;;;;;;4.03;2.78;;;;;;;;;;5070953;28;20162;-69
2023/06/06 09:10:25;;;;;;;3.85;2.20;;;;;;;;;;5071506;28;20127;-69
2023/06/06 09:12:52;;;;;;;3.35;2.53;;;;;;;;;;5058651;28;20041;-69
2023/06/06 09:15:18;;;;;;;4.97;2.58;;;;;;;;;;5052597;28;20136;-69
2023/06/06 09:17:47;;;;;;;5.93;2.53;;;;;;;;;;5051915;28;20049;-69
2023/06/06 09:20:15;;;;;;;9.10;2.80;;;;;;;;;;5052033;28;20083;-69
2023/06/06 09:22:45;;;;;;;3.05;2.53;;;;;;;;;;5052202;28;20387;-70
2023/06/06 09:25:18;;;;;;;3.70;2.28;;;;;;;;;;5053702;28;20041;-70
2023/06/06 09:27:45;;;;;;;3.00;2.35;;;;;;;;;;5053099;28;20073;-70
2023/06/06 09:30:22;;;;;;;3.70;2.60;;;;;;;;;;5055069;28;20478;-69
2023/06/06 09:32:53;;;;;;;6.72;2.70;;;;;;;;;;5060335;28;20114;-69
2023/06/06 09:35:20;;;;;;;3.42;2.35;;;;;;;;;;5056529;28;20090;-70
2023/06/06 09:37:48;;;;;;;3.25;2.45;;;;;;;;;;5052136;28;20468;-69
2023/06/06 09:40:16;;;;;;;2.58;2.33;;;;;;;;;;5061256;28;20041;-70
2023/06/06 09:42:46;;;;;;;3.85;2.78;;;;;;;;;;5066691;28;20047;-69
2023/06/06 09:45:14;;;;;;;4.35;2.50;;;;;;;;;;5051873;28;20052;-69
2023/06/06 09:47:41;;;;;;;2.90;2.28;;;;;;;;;;5062833;28;20414;-70
2023/06/06 09:50:10;;;;;;;2.67;2.35;;;;;;;;;;5071102;28;20198;-69
2023/06/06 09:52:36;;;;;;;2.90;2.20;;;;;;;;;;5051558;28;20059;-70
2023/06/06 09:55:06;;;;;;;3.90;2.50;;;;;;;;;;5054143;28;20045;-69
2023/06/06 09:57:36;;;;;;;2.55;2.15;;;;;;;;;;5051768;28;20052;-69
2023/06/06 10:00:10;;;;;;;2.83;2.50;;;;;;;;;;5051215;28;20073;-70
2023/06/06 10:02:43;;;;;;;2.80;2.38;;;;;;;;;;5054811;28;20044;-70
2023/06/06 10:05:11;;;;;;;3.25;2.30;;;;;;;;;;5070740;28;20048;-70
2023/06/06 10:07:41;;;;;;;2.95;2.42;;;;;;;;;;5055073;28;20044;-69
2023/06/06 10:10:13;;;;;;;3.70;2.78;;;;;;;;;;5070765;28;20049;-70
2023/06/06 10:12:40;;;;;;;5.57;2.22;;;;;;;;;;5071448;28;20102;-69
2023/06/06 10:15:09;;;;;;;2.95;2.40;;;;;;;;;;5053849;28;20406;-69
2023/06/06 10:17:37;;;;;;;2.70;2.30;;;;;;;;;;5051521;28;20453;-69
2023/06/06 10:20:06;;;;;;;4.00;2.20;;;;;;;;;;5065035;28;20044;-69
2023/06/06 10:22:33;;;;;;;4.22;2.50;;;;;;;;;;5051815;28;20049;-70
2023/06/06 10:25:01;;;;;;;3.17;2.35;;;;;;;;;;5051200;28;20311;-70
2023/06/06 10:27:38;;;;;;;2.85;2.05;;;;;;;;;;5061453;28;20041;-70
2023/06/06 10:30:14;;;;;;;3.42;2.20;;;;;;;;;;5069588;28;20437;-70
2023/06/06 10:32:48;;;;;;;3.55;2.38;;;;;;;;;;5058385;28;20423;-70
2023/06/06 10:35:16;;;;;;;2.83;2.63;;;;;;;;;;5051482;28;20049;-69
2023/06/06 10:37:43;;;;;;;2.92;2.63;;;;;;;;;;5068406;28;20040;-70
2023/06/06 10:40:15;;;;;;;2.78;2.55;;;;;;;;;;5070703;28;20425;-70
2023/06/06 10:42:43;;;;;;;3.60;2.53;;;;;;;;;;5069312;28;20490;-70
2023/06/06 10:45:09;;;;;;;3.08;2.78;;;;;;;;;;5068356;28;20041;-71
2023/06/06 10:47:39;;;;;;;3.72;2.80;;;;;;;;;;5071167;28;20060;-69
2023/06/06 10:50:21;;;;;;;2.97;2.72;;;;;;;;;;5070266;28;20052;-70
2023/06/06 10:52:49;;;;;;;3.25;2.90;;;;;;;;;;5070428;28;20053;-71
2023/06/06 10:55:16;;;;;;;4.35;2.75;;;;;;;;;;5070398;28;20053;-70
2023/06/06 10:57:52;;;;;;;7.18;2.60;;;;;;;;;;5070546;28;20055;-70
2023/06/06 11:00:23;;;;;;;4.38;3.00;;;;;;;;;;5053545;28;20161;-70
2023/06/06 11:02:49;;;;;;;3.45;2.90;;;;;;;;;;5056679;28;20465;-70
2023/06/06 11:05:16;;;;;;;3.95;3.35;;;;;;;;;;5057683;28;20045;-70
2023/06/06 11:07:49;;;;;;;4.07;2.97;;;;;;;;;;5049984;28;20405;-71
2023/06/06 11:10:21;;;;;;;5.82;3.35;;;;;;;;;;5050639;28;20037;-70
2023/06/06 11:12:48;;;;;;;5.40;3.53;;;;;;;;;;5050351;28;20071;-70
2023/06/06 11:15:26;;;;;;;3.95;3.05;;;;;;;;;;5050799;28;20045;-70
2023/06/06 11:18:00;;;;;;;6.15;3.40;;;;;;;;;;5050077;28;20050;-71
2023/06/06 11:20:28;;;;;;;4.03;3.03;;;;;;;;;;5049904;28;20045;-70
2023/06/06 11:23:01;;;;;;;4.72;3.30;;;;;;;;;;5050105;28;20056;-71
2023/06/06 11:25:30;;;;;;;5.93;3.10;;;;;;;;;;5050554;28;20064;-70
2023/06/06 11:27:57;;;;;;;6.43;3.20;;;;;;;;;;5050344;28;20176;-70
2023/06/06 11:30:26;;;;;;;6.30;3.30;;;;;;;;;;5050195;28;20052;-70
2023/06/06 11:32:52;;;;;;;4.80;3.10;;;;;;;;;;5050026;28;20049;-71
2023/06/06 11:35:20;;;;;;;4.75;3.38;;;;;;;;;;5051014;28;20406;-70
2023/06/06 11:37:47;;;;;;;4.03;3.08;;;;;;;;;;5050015;28;20067;-71
2023/06/06 11:40:14;;;;;;;3.45;3.00;;;;;;;;;;5049862;28;20044;-70
2023/06/06 11:42:44;;;;;;;4.18;3.10;;;;;;;;;;5049578;28;20135;-70
2023/06/06 11:45:15;;;;;;;4.78;3.03;;;;;;;;;;5049972;28;20052;-70
2023/06/06 11:47:43;;;;;;;4.43;3.10;;;;;;;;;;5049394;28;20697;-70
2023/06/06 11:50:11;;;;;;;4.53;3.40;;;;;;;;;;5049831;28;20270;-70
2023/06/06 11:52:44;;;;;;;4.45;3.00;;;;;;;;;;5050108;28;20060;-71
2023/06/06 11:55:11;;;;;;;3.85;3.30;;;;;;;;;;5049862;28;20395;-71
2023/06/06 11:57:37;;;;;;;3.30;2.80;;;;;;;;;;5049994;28;20056;-70
2023/06/06 12:00:12;;;;;;;3.70;3.20;;;;;;;;;;5048786;28;20075;-70
2023/06/06 12:02:40;;;;;;;3.22;2.92;;;;;;;;;;5050120;28;20045;-71
2023/06/06 12:05:18;;;;;;;3.40;3.10;;;;;;;;;;5048491;28;20041;-70
2023/06/06 12:07:45;;;;;;;3.97;3.35;;;;;;;;;;5049778;28;20048;-70
2023/06/06 12:10:11;;;;;;;3.88;3.17;;;;;;;;;;5049143;28;20815;-70
2023/06/06 12:12:45;;;;;;;7.72;5.18;;;;;;;;;;5049451;28;20049;-71
2023/06/06 12:15:11;;;;;;;4.97;3.42;;;;;;;;;;5049554;28;20518;-70
2023/06/06 12:17:38;;;;;;;3.42;3.13;;;;;;;;;;5049389;28;20049;-71
2023/06/06 12:20:05;;;;;;;4.28;3.13;;;;;;;;;;5048804;28;20049;-70
2023/06/06 12:22:35;;;;;;;8.65;3.58;;;;;;;;;;5049632;28;20110;-70
2023/06/06 12:25:02;;;;;;;3.97;2.53;;;;;;;;;;5048841;28;20060;-70
2023/06/06 12:27:33;;;;;;;5.85;3.63;;;;;;;;;;5049722;28;20056;-70
2023/06/06 12:30:00;;;;;;;3.93;2.80;;;;;;;;;;5049028;28;20072;-70
2023/06/06 12:32:29;;;;;;;8.65;3.05;;;;;;;;;;5049569;28;20053;-70
2023/06/06 12:35:01;;;;;;;5.43;3.10;;;;;;;;;;5049601;28;20060;-70
2023/06/06 12:37:37;;;;;;;3.53;3.22;;;;;;;;;;5049289;28;20540;-70
2023/06/06 12:40:14;;;;;;;4.20;3.00;;;;;;;;;;5049571;28;20072;-70
2023/06/06 12:42:41;;;;;;;6.28;3.25;;;;;;;;;;5050116;28;20053;-70
2023/06/06 12:45:09;;;;;;;3.95;3.38;;;;;;;;;;5049620;28;20280;-70
2023/06/06 12:47:36;;;;;;;4.63;3.40;;;;;;;;;;5049306;28;20091;-70
2023/06/06 12:50:03;;;;;;;4.90;2.95;;;;;;;;;;5048785;28;20047;-71
2023/06/06 12:52:30;;;;;;;3.33;2.75;;;;;;;;;;5049112;28;20053;-70
2023/06/06 12:54:58;;;;;;;4.38;3.03;;;;;;;;;;5049838;28;20099;-71
2023/06/06 12:57:25;;;;;;;5.82;2.90;;;;;;;;;;5049035;28;20414;-70
2023/06/06 12:59:52;;;;;;;3.20;2.90;;;;;;;;;;5048849;28;20045;-71
2023/06/06 13:02:19;;;;;;;4.20;2.92;;;;;;;;;;5048972;28;20072;-71
2023/06/06 13:04:46;;;;;;;3.80;2.75;;;;;;;;;;5049559;28;20491;-71
2023/06/06 13:07:13;;;;;;;6.07;2.92;;;;;;;;;;5048993;28;20072;-71
2023/06/06 13:09:39;;;;;;;4.78;2.90;;;;;;;;;;5048834;28;20053;-71
2023/06/06 13:12:08;;;;;;;2.50;2.30;;;;;;;;;;5048913;28;20518;-71
2023/06/06 13:14:36;;;;;;;5.97;2.65;;;;;;;;;;5049291;28;20443;-71
2023/06/06 13:17:02;;;;;;;2.60;2.40;;;;;;;;;;5051520;28;20052;-70
2023/06/06 13:19:29;;;;;;;3.22;2.53;;;;;;;;;;5052766;28;20055;-70
2023/06/06 13:21:55;;;;;;;9.02;2.70;;;;;;;;;;5053034;28;20041;-70
2023/06/06 13:24:22;;;;;;;2.70;2.50;;;;;;;;;;5052237;28;20045;-69
2023/06/06 13:26:48;;;;;;;2.65;2.45;;;;;;;;;;5052800;28;20045;-70
2023/06/06 13:29:16;;;;;;;4.13;2.60;;;;;;;;;;5052826;28;20049;-69
2023/06/06 13:31:44;;;;;;;3.08;2.50;;;;;;;;;;5052095;28;20047;-70
2023/06/06 13:34:11;;;;;;;3.47;2.72;;;;;;;;;;5052444;28;20096;-70
2023/06/06 13:36:38;;;;;;;3.40;3.10;;;;;;;;;;5052747;28;20501;-70
2023/06/06 13:39:05;;;;;;;3.67;2.10;;;;;;;;;;5052423;28;20137;-70
2023/06/06 13:41:32;;;;;;;2.30;2.10;;;;;;;;;;5052546;28;20045;-71
2023/06/06 13:43:59;;;;;;;3.60;2.28;;;;;;;;;;5052157;28;20044;-70
2023/06/06 13:46:27;;;;;;;4.15;2.72;;;;;;;;;;5052380;28;20060;-70
2023/06/06 13:48:54;;;;;;;3.53;2.20;;;;;;;;;;5052501;28;20044;-69
2023/06/06 13:51:21;;;;;;;2.70;2.42;;;;;;;;;;5052300;28;20060;-70
2023/06/06 13:53:47;;;;;;;9.50;2.42;;;;;;;;;;5052575;28;20049;-69
2023/06/06 13:56:15;;;;;;;2.50;2.30;;;;;;;;;;5052122;28;20049;-70
2023/06/06 13:58:49;;;;;;;4.95;2.42;;;;;;;;;;5052008;28;20047;-69
2023/06/06 14:01:17;;;;;;;5.47;2.35;;;;;;;;;;5051532;28;20414;-70
2023/06/06 14:03:45;;;;;;;2.70;2.38;;;;;;;;;;5052479;28;20045;-70
2023/06/06 14:06:12;;;;;;;3.28;2.28;;;;;;;;;;5051486;28;20491;-70
2023/06/06 14:08:39;;;;;;;2.72;2.42;;;;;;;;;;5052298;28;20068;-70
2023/06/06 14:11:07;;;;;;;3.15;2.30;;;;;;;;;;5051135;28;20483;-70
2023/06/06 14:13:33;;;;;;;4.78;2.55;;;;;;;;;;5051762;28;20051;-70
2023/06/06 14:16:00;;;;;;;3.33;2.70;;;;;;;;;;5051860;28;20053;-71
2023/06/06 14:18:26;;;;;;;3.72;2.72;;;;;;;;;;5051738;28;20559;-71
2023/06/06 14:21:10;;;;;;;3.03;2.50;;;;;;;;;;5050977;28;20464;-70
2023/06/06 14:23:39;;;;;;;4.75;2.70;;;;;;;;;;5052168;28;20048;-71
2023/06/06 14:26:05;;;;;;;2.75;2.55;;;;;;;;;;5050963;28;20055;-71
2023/06/06 14:28:32;;;;;;;2.92;2.42;;;;;;;;;;5050846;28;20055;-71
2023/06/06 14:30:59;;;;;;;3.22;2.40;;;;;;;;;;5050752;28;20044;-70
2023/06/06 14:33:26;;;;;;;3.95;2.80;;;;;;;;;;5051555;28;20403;-70
2023/06/06 14:35:54;;;;;;;2.92;2.50;;;;;;;;;;5051238;28;20056;-70
2023/06/06 14:38:21;;;;;;;5.60;2.63;;;;;;;;;;5051046;28;20049;-70
2023/06/06 14:40:48;;;;;;;5.65;2.55;;;;;;;;;;5051189;28;20526;-70
2023/06/06 14:43:15;;;;;;;2.85;2.60;;;;;;;;;;5051090;28;20045;-70
2023/06/06 14:45:42;;;;;;;4.72;2.55;;;;;;;;;;5051147;28;20573;-69
2023/06/06 14:48:08;;;;;;;5.25;3.20;;;;;;;;;;5050870;28;20152;-71